Time;durP1;ratioP1;P1;durP2;ratioP2;P2;SDS_P1;SDS_P2;PMS_P1;PMS_P2;Temp;Humidity;BMP_temperature;BMP_pressure;BME280_temperature;BME280_humidity;BME280_pressure;Samples;Min_cycle;Max_cycle;Signal;HPM_P1;HPM_P2
2021/01/04 00:00:12;;;;;;;15.05;8.25;;;;;;;;;;5052145;28;20020;-76
2021/01/04 00:02:48;;;;;;;13.30;6.53;;;;;;;;;;5050545;28;20366;-74
2021/01/04 00:05:26;;;;;;;13.43;7.93;;;;;;;;;;5050756;28;20032;-75
2021/01/04 00:07:52;;;;;;;13.80;8.60;;;;;;;;;;5051901;28;20021;-74
2021/01/04 00:10:38;;;;;;;8.13;3.28;;;;;;;;;;5052040;28;20040;-75
2021/01/04 00:13:10;;;;;;;12.73;6.60;;;;;;;;;;5051787;28;20382;-74
2021/01/04 00:15:47;;;;;;;17.33;10.05;;;;;;;;;;5051847;28;20104;-74
2021/01/04 00:18:25;;;;;;;8.93;5.25;;;;;;;;;;5054196;28;20017;-74
2021/01/04 00:21:00;;;;;;;15.27;9.10;;;;;;;;;;5055684;28;20071;-74
2021/01/04 00:23:32;;;;;;;13.70;8.23;;;;;;;;;;5054624;28;20036;-74
2021/01/04 00:26:03;;;;;;;20.40;12.32;;;;;;;;;;5055638;28;20013;-74
2021/01/04 00:28:31;;;;;;;15.15;8.30;;;;;;;;;;5054474;28;20495;-74
2021/01/04 00:31:00;;;;;;;17.83;9.98;;;;;;;;;;5054238;28;20369;-74
2021/01/04 00:33:35;;;;;;;18.50;11.88;;;;;;;;;;5054351;28;20013;-74
2021/01/04 00:36:04;;;;;;;16.63;10.50;;;;;;;;;;5055556;28;20017;-73
2021/01/04 00:38:36;;;;;;;20.77;11.38;;;;;;;;;;5054294;28;20017;-75
2021/01/04 00:41:15;;;;;;;18.52;10.80;;;;;;;;;;5053913;28;20065;-74
2021/01/04 00:43:57;;;;;;;14.38;7.63;;;;;;;;;;5053734;28;20032;-74
2021/01/04 00:46:28;;;;;;;13.43;7.07;;;;;;;;;;5055315;28;20028;-75
2021/01/04 00:49:15;;;;;;;14.23;8.75;;;;;;;;;;5055190;28;20013;-74
2021/01/04 00:51:43;;;;;;;17.17;9.88;;;;;;;;;;5055119;28;20021;-75
2021/01/04 00:54:17;;;;;;;17.35;9.32;;;;;;;;;;5055380;28;20100;-74
2021/01/04 00:57:02;;;;;;;11.13;6.93;;;;;;;;;;5055032;28;20024;-74
2021/01/04 00:59:33;;;;;;;13.77;7.68;;;;;;;;;;5053888;28;20063;-74
2021/01/04 01:02:05;;;;;;;15.40;8.52;;;;;;;;;;5054902;28;20076;-74
2021/01/04 01:04:40;;;;;;;21.65;10.77;;;;;;;;;;5053851;28;20080;-75
2021/01/04 01:07:09;;;;;;;18.05;10.80;;;;;;;;;;5053880;28;20074;-75
2021/01/04 01:09:38;;;;;;;15.27;9.05;;;;;;;;;;5053791;28;20107;-75
2021/01/04 01:12:19;;;;;;;12.02;6.43;;;;;;;;;;5053616;28;20401;-75
2021/01/04 01:15:01;;;;;;;19.77;11.75;;;;;;;;;;5054739;28;20039;-76
2021/01/04 01:17:27;;;;;;;14.55;9.13;;;;;;;;;;5053558;28;20450;-75
2021/01/04 01:19:55;;;;;;;11.75;7.35;;;;;;;;;;5054637;28;20071;-76
2021/01/04 01:22:33;;;;;;;14.45;8.60;;;;;;;;;;5053386;28;20025;-75
2021/01/04 01:25:01;;;;;;;13.38;7.75;;;;;;;;;;5053289;28;20029;-75
2021/01/04 01:27:39;;;;;;;8.40;3.92;;;;;;;;;;5053309;28;20028;-75
2021/01/04 01:30:22;;;;;;;17.13;9.75;;;;;;;;;;5052787;28;20028;-75
2021/01/04 01:33:06;;;;;;;17.77;9.77;;;;;;;;;;5054570;28;20075;-75
2021/01/04 01:35:45;;;;;;;20.15;10.63;;;;;;;;;;5054799;28;20021;-75
2021/01/04 01:38:30;;;;;;;12.30;7.68;;;;;;;;;;5066331;28;20028;-75
2021/01/04 01:41:08;;;;;;;11.55;6.15;;;;;;;;;;5059673;28;20048;-75
2021/01/04 01:43:53;;;;;;;14.80;9.45;;;;;;;;;;5054356;28;20516;-76
2021/01/04 01:46:31;;;;;;;13.57;8.68;;;;;;;;;;5053107;28;20029;-76
2021/01/04 01:49:03;;;;;;;8.85;4.18;;;;;;;;;;5052782;28;20013;-75
2021/01/04 01:51:55;;;;;;;15.73;9.70;;;;;;;;;;5054208;28;20055;-74
2021/01/04 01:54:34;;;;;;;11.27;6.40;;;;;;;;;;5052743;28;20062;-74
2021/01/04 01:57:00;;;;;;;16.30;10.38;;;;;;;;;;5054262;28;20523;-74
2021/01/04 01:59:36;;;;;;;17.10;8.93;;;;;;;;;;5052805;28;20021;-74
2021/01/04 02:02:06;;;;;;;13.15;7.70;;;;;;;;;;5052500;28;20040;-75
2021/01/04 02:04:32;;;;;;;13.02;5.95;;;;;;;;;;5054352;28;20515;-74
2021/01/04 02:07:09;;;;;;;11.68;7.18;;;;;;;;;;5052489;28;20025;-74
2021/01/04 02:09:42;;;;;;;12.65;6.25;;;;;;;;;;5053950;28;20009;-74
2021/01/04 02:12:21;;;;;;;11.50;7.00;;;;;;;;;;5052378;28;20032;-74
2021/01/04 02:14:58;;;;;;;11.50;5.83;;;;;;;;;;5052865;28;20009;-74
2021/01/04 02:17:30;;;;;;;13.60;7.38;;;;;;;;;;5053740;28;20017;-76
2021/01/04 02:20:12;;;;;;;13.25;7.95;;;;;;;;;;5053532;28;20021;-75
2021/01/04 02:22:41;;;;;;;14.95;8.85;;;;;;;;;;5053776;28;20030;-75
2021/01/04 02:25:07;;;;;;;8.98;5.15;;;;;;;;;;5052090;28;20013;-75
2021/01/04 02:27:36;;;;;;;14.63;9.07;;;;;;;;;;5053355;28;20021;-74
2021/01/04 02:30:03;;;;;;;14.60;9.07;;;;;;;;;;5053566;28;20040;-75
2021/01/04 02:32:29;;;;;;;10.98;5.78;;;;;;;;;;5053772;28;20074;-74
2021/01/04 02:34:56;;;;;;;14.30;8.90;;;;;;;;;;5051645;28;20027;-75
2021/01/04 02:37:23;;;;;;;9.60;5.30;;;;;;;;;;5052059;28;20357;-75
2021/01/04 02:39:57;;;;;;;12.20;8.48;;;;;;;;;;5051573;28;20477;-75
2021/01/04 02:42:34;;;;;;;9.18;4.50;;;;;;;;;;5052201;28;20022;-75
2021/01/04 02:45:03;;;;;;;10.57;6.22;;;;;;;;;;5051692;28;20021;-74
2021/01/04 02:47:32;;;;;;;9.98;7.45;;;;;;;;;;5051846;28;20021;-74
2021/01/04 02:50:07;;;;;;;9.63;6.38;;;;;;;;;;5052908;28;20029;-74
2021/01/04 02:52:45;;;;;;;15.00;7.80;;;;;;;;;;5051767;28;20025;-74
2021/01/04 02:55:22;;;;;;;10.90;7.60;;;;;;;;;;5051774;28;20457;-74
2021/01/04 02:57:55;;;;;;;13.20;7.53;;;;;;;;;;5051433;28;20029;-74
2021/01/04 03:00:24;;;;;;;6.45;3.22;;;;;;;;;;5052616;28;20376;-75
2021/01/04 03:02:54;;;;;;;12.43;7.90;;;;;;;;;;5052728;28;20020;-75
2021/01/04 03:05:22;;;;;;;11.70;7.90;;;;;;;;;;5051304;28;20021;-74
2021/01/04 03:07:53;;;;;;;11.20;7.70;;;;;;;;;;5052531;28;20048;-74
2021/01/04 03:10:24;;;;;;;12.00;6.90;;;;;;;;;;5052571;28;20043;-74
2021/01/04 03:12:56;;;;;;;12.60;7.57;;;;;;;;;;5052543;28;20063;-74
2021/01/04 03:15:22;;;;;;;11.48;7.35;;;;;;;;;;5051426;28;20027;-74
2021/01/04 03:17:54;;;;;;;10.52;6.00;;;;;;;;;;5052756;28;20021;-74
2021/01/04 03:20:21;;;;;;;11.48;7.03;;;;;;;;;;5052585;28;20021;-74
2021/01/04 03:22:48;;;;;;;10.85;7.63;;;;;;;;;;5052561;28;20303;-74
2021/01/04 03:25:19;;;;;;;12.32;6.68;;;;;;;;;;5052400;28;20067;-74
2021/01/04 03:27:45;;;;;;;12.60;8.52;;;;;;;;;;5051152;28;20025;-75
2021/01/04 03:30:12;;;;;;;12.00;7.15;;;;;;;;;;5050908;28;20017;-75
2021/01/04 03:32:39;;;;;;;7.93;3.63;;;;;;;;;;5052419;28;20027;-75
2021/01/04 03:35:05;;;;;;;10.90;7.50;;;;;;;;;;5052482;28;20013;-74
2021/01/04 03:37:31;;;;;;;7.82;4.65;;;;;;;;;;5052265;28;20017;-74
2021/01/04 03:39:57;;;;;;;9.40;6.18;;;;;;;;;;5050450;28;20059;-75
2021/01/04 03:42:23;;;;;;;9.43;6.72;;;;;;;;;;5050729;28;20021;-75
2021/01/04 03:44:49;;;;;;;9.82;6.28;;;;;;;;;;5050770;28;20075;-75
2021/01/04 03:47:15;;;;;;;11.60;7.18;;;;;;;;;;5051006;28;20067;-75
2021/01/04 03:49:41;;;;;;;8.68;4.72;;;;;;;;;;5051053;28;20021;-75
2021/01/04 03:52:07;;;;;;;11.80;6.18;;;;;;;;;;5050344;28;20032;-75
2021/01/04 03:54:33;;;;;;;7.55;4.65;;;;;;;;;;5050556;28;20066;-76
2021/01/04 03:56:59;;;;;;;10.45;6.95;;;;;;;;;;5050585;28;20021;-75
2021/01/04 03:59:25;;;;;;;9.88;6.38;;;;;;;;;;5050796;28;20021;-75
2021/01/04 04:01:52;;;;;;;8.30;5.93;;;;;;;;;;5050532;28;20064;-75
2021/01/04 04:04:19;;;;;;;10.35;6.35;;;;;;;;;;5051790;28;20097;-75
2021/01/04 04:06:45;;;;;;;10.45;6.13;;;;;;;;;;5050728;28;20023;-75
2021/01/04 04:09:13;;;;;;;9.95;6.70;;;;;;;;;;5051477;28;20019;-75
2021/01/04 04:11:39;;;;;;;8.00;3.75;;;;;;;;;;5051996;28;20479;-75
2021/01/04 04:14:05;;;;;;;9.27;6.05;;;;;;;;;;5050475;28;20021;-75
2021/01/04 04:16:31;;;;;;;11.10;6.65;;;;;;;;;;5050753;28;20021;-75
2021/01/04 04:18:58;;;;;;;10.63;7.00;;;;;;;;;;5050529;28;20085;-75
2021/01/04 04:21:24;;;;;;;8.45;5.20;;;;;;;;;;5051844;28;20024;-75
2021/01/04 04:23:50;;;;;;;9.35;6.03;;;;;;;;;;5050213;28;20028;-75
2021/01/04 04:26:17;;;;;;;12.38;6.93;;;;;;;;;;5051913;28;20017;-75
2021/01/04 04:28:43;;;;;;;8.93;6.35;;;;;;;;;;5050462;28;20021;-74
2021/01/04 04:31:10;;;;;;;10.90;7.13;;;;;;;;;;5051600;28;20464;-75
2021/01/04 04:33:36;;;;;;;10.75;6.53;;;;;;;;;;5051858;28;20028;-75
2021/01/04 04:36:03;;;;;;;10.40;6.00;;;;;;;;;;5050276;28;20025;-75
2021/01/04 04:38:29;;;;;;;9.15;6.03;;;;;;;;;;5050358;28;20115;-75
2021/01/04 04:40:55;;;;;;;9.73;6.68;;;;;;;;;;5051385;28;20115;-75
2021/01/04 04:43:38;;;;;;;9.13;5.15;;;;;;;;;;5051681;28;20048;-74
2021/01/04 04:46:06;;;;;;;6.10;2.90;;;;;;;;;;5049803;28;20051;-75
2021/01/04 04:48:48;;;;;;;10.13;6.40;;;;;;;;;;5050410;28;20021;-75
2021/01/04 04:51:32;;;;;;;9.85;5.28;;;;;;;;;;5050129;28;20036;-76
2021/01/04 04:54:12;;;;;;;6.18;3.65;;;;;;;;;;5050111;28;20021;-74
2021/01/04 04:56:50;;;;;;;12.60;8.00;;;;;;;;;;5051583;28;20021;-74
2021/01/04 04:59:34;;;;;;;9.70;6.03;;;;;;;;;;5050049;28;20016;-75
2021/01/04 05:02:22;;;;;;;8.20;5.18;;;;;;;;;;5051186;28;20068;-75
2021/01/04 05:04:51;;;;;;;11.93;7.80;;;;;;;;;;5052668;28;20013;-75
2021/01/04 05:07:30;;;;;;;10.88;6.72;;;;;;;;;;5054906;28;20039;-75
2021/01/04 05:09:56;;;;;;;11.00;6.97;;;;;;;;;;5053537;28;20109;-74
2021/01/04 05:12:43;;;;;;;9.10;5.03;;;;;;;;;;5053568;28;20278;-74
2021/01/04 05:15:09;;;;;;;13.18;7.65;;;;;;;;;;5052801;28;20075;-75
2021/01/04 05:17:38;;;;;;;10.07;5.85;;;;;;;;;;5054682;28;20428;-75
2021/01/04 05:20:19;;;;;;;10.20;6.72;;;;;;;;;;5054827;28;20472;-74
2021/01/04 05:22:47;;;;;;;12.75;7.03;;;;;;;;;;5054725;28;20118;-74
2021/01/04 05:25:28;;;;;;;10.60;6.95;;;;;;;;;;5054495;28;20020;-74
2021/01/04 05:28:14;;;;;;;13.23;7.95;;;;;;;;;;5053298;28;20102;-75
2021/01/04 05:30:46;;;;;;;9.07;4.50;;;;;;;;;;5054641;28;20032;-75
2021/01/04 05:33:11;;;;;;;9.98;6.28;;;;;;;;;;5053020;28;20476;-75
2021/01/04 05:35:38;;;;;;;6.93;3.80;;;;;;;;;;5054535;28;20025;-75
2021/01/04 05:38:14;;;;;;;11.25;7.40;;;;;;;;;;5052846;28;20104;-75
2021/01/04 05:40:43;;;;;;;12.50;8.00;;;;;;;;;;5052775;28;20079;-74
2021/01/04 05:43:14;;;;;;;8.90;5.23;;;;;;;;;;5054196;28;20118;-75
2021/01/04 05:45:52;;;;;;;10.50;5.80;;;;;;;;;;5054582;28;20775;-75
2021/01/04 05:48:38;;;;;;;10.90;6.15;;;;;;;;;;5054212;28;20025;-75
2021/01/04 05:51:20;;;;;;;14.30;8.77;;;;;;;;;;5052758;28;20021;-75
2021/01/04 05:53:46;;;;;;;9.75;5.90;;;;;;;;;;5052943;28;20107;-75
2021/01/04 05:56:19;;;;;;;11.90;7.57;;;;;;;;;;5052675;28;20357;-75
2021/01/04 05:58:45;;;;;;;12.30;7.95;;;;;;;;;;5054436;28;20021;-76
2021/01/04 06:01:29;;;;;;;9.52;6.35;;;;;;;;;;5052566;28;20025;-76
2021/01/04 06:03:59;;;;;;;9.80;5.53;;;;;;;;;;5054102;28;20446;-75
2021/01/04 06:06:33;;;;;;;12.52;8.05;;;;;;;;;;5052707;28;20025;-75
2021/01/04 06:09:00;;;;;;;10.40;7.32;;;;;;;;;;5053711;28;20051;-75
2021/01/04 06:11:26;;;;;;;11.13;6.78;;;;;;;;;;5053873;28;20025;-74
2021/01/04 06:13:56;;;;;;;12.18;6.68;;;;;;;;;;5053469;28;20075;-75
2021/01/04 06:16:26;;;;;;;11.23;8.13;;;;;;;;;;5053635;28;20013;-75
2021/01/04 06:18:55;;;;;;;11.38;7.13;;;;;;;;;;5052530;28;20422;-75
2021/01/04 06:21:25;;;;;;;6.97;3.88;;;;;;;;;;5052042;28;20457;-75
2021/01/04 06:23:52;;;;;;;7.82;4.78;;;;;;;;;;5053279;28;20441;-75
2021/01/04 06:26:20;;;;;;;6.43;4.22;;;;;;;;;;5052006;28;20074;-74
2021/01/04 06:28:54;;;;;;;7.07;4.03;;;;;;;;;;5053601;28;20480;-74
2021/01/04 06:31:25;;;;;;;11.70;7.13;;;;;;;;;;5053340;28;20108;-74
2021/01/04 06:34:07;;;;;;;12.25;6.35;;;;;;;;;;5052135;28;20025;-75
2021/01/04 06:36:35;;;;;;;9.07;4.95;;;;;;;;;;5053371;28;20017;-75
2021/01/04 06:39:09;;;;;;;7.95;3.63;;;;;;;;;;5053066;28;20083;-75
2021/01/04 06:41:36;;;;;;;10.23;6.32;;;;;;;;;;5051323;28;20041;-75
2021/01/04 06:44:17;;;;;;;9.07;4.82;;;;;;;;;;5052746;28;20021;-75
2021/01/04 06:46:57;;;;;;;13.90;8.15;;;;;;;;;;5052832;28;20025;-75
2021/01/04 06:49:28;;;;;;;11.25;6.32;;;;;;;;;;5051320;28;20021;-76
2021/01/04 06:52:13;;;;;;;8.18;4.40;;;;;;;;;;5051833;28;20028;-75
2021/01/04 06:54:51;;;;;;;12.52;6.65;;;;;;;;;;5052962;28;20572;-74
2021/01/04 06:57:34;;;;;;;17.15;10.52;;;;;;;;;;5052817;28;20040;-74
2021/01/04 07:00:16;;;;;;;14.80;9.02;;;;;;;;;;5051350;28;20021;-74
2021/01/04 07:03:03;;;;;;;15.07;8.73;;;;;;;;;;5051510;28;20025;-75
2021/01/04 07:05:48;;;;;;;15.27;8.98;;;;;;;;;;5052924;28;20048;-75
2021/01/04 07:08:20;;;;;;;18.20;11.73;;;;;;;;;;5052658;28;20021;-75
2021/01/04 07:10:54;;;;;;;20.92;11.73;;;;;;;;;;5052862;28;20028;-75
2021/01/04 07:13:40;;;;;;;17.35;10.38;;;;;;;;;;5052883;28;20056;-74
2021/01/04 07:16:06;;;;;;;16.45;9.32;;;;;;;;;;5058355;28;20013;-75
2021/01/04 07:18:51;;;;;;;17.73;10.27;;;;;;;;;;5059343;28;20021;-75
2021/01/04 07:21:36;;;;;;;11.75;6.95;;;;;;;;;;5060835;28;20025;-74
2021/01/04 07:24:17;;;;;;;9.45;4.78;;;;;;;;;;5061362;28;20017;-74
2021/01/04 07:27:14;;;;;;;18.45;9.75;;;;;;;;;;5060689;28;20072;-74
2021/01/04 07:30:03;;;;;;;14.77;8.35;;;;;;;;;;5061527;28;20081;-75
2021/01/04 07:32:38;;;;;;;12.48;6.65;;;;;;;;;;5059575;28;20035;-75
2021/01/04 07:35:09;;;;;;;16.70;8.68;;;;;;;;;;5060476;28;20447;-75
2021/01/04 07:37:35;;;;;;;16.38;8.65;;;;;;;;;;5060816;28;20013;-75
2021/01/04 07:40:09;;;;;;;18.95;9.55;;;;;;;;;;5061363;28;20042;-75
2021/01/04 07:42:57;;;;;;;17.70;8.80;;;;;;;;;;5056034;28;20065;-75
2021/01/04 07:45:30;;;;;;;19.88;10.88;;;;;;;;;;5052079;28;20017;-75
2021/01/04 07:48:15;;;;;;;15.18;8.63;;;;;;;;;;5056024;28;20024;-76
2021/01/04 07:50:44;;;;;;;15.25;9.98;;;;;;;;;;5066334;28;20017;-75
2021/01/04 07:53:22;;;;;;;15.20;9.18;;;;;;;;;;5070666;28;20020;-74
2021/01/04 07:56:11;;;;;;;17.83;10.65;;;;;;;;;;5072146;28;20019;-74
2021/01/04 07:58:53;;;;;;;15.65;9.18;;;;;;;;;;5072189;28;20099;-73
2021/01/04 08:01:36;;;;;;;15.13;9.57;;;;;;;;;;5070541;28;20139;-74
2021/01/04 08:04:05;;;;;;;14.07;8.35;;;;;;;;;;5071862;28;20032;-72
2021/01/04 08:07:00;;;;;;;10.32;5.47;;;;;;;;;;5072059;28;20027;-73
2021/01/04 08:09:36;;;;;;;16.70;9.23;;;;;;;;;;5069390;28;20025;-73
2021/01/04 08:12:14;;;;;;;15.18;8.75;;;;;;;;;;5071891;28;20028;-73
2021/01/04 08:14:49;;;;;;;18.13;8.82;;;;;;;;;;5070671;28;20044;-73
2021/01/04 08:17:15;;;;;;;14.13;8.57;;;;;;;;;;5070388;28;20133;-73
2021/01/04 08:19:42;;;;;;;16.70;7.22;;;;;;;;;;5070706;28;20017;-73
2021/01/04 08:22:08;;;;;;;16.23;8.25;;;;;;;;;;5071559;28;20033;-73
2021/01/04 08:24:43;;;;;;;13.48;7.07;;;;;;;;;;5070595;28;20078;-76
2021/01/04 08:27:09;;;;;;;16.88;9.38;;;;;;;;;;5070391;28;20071;-74
2021/01/04 08:29:38;;;;;;;17.65;9.02;;;;;;;;;;5071874;28;20021;-74
2021/01/04 08:32:17;;;;;;;16.27;10.65;;;;;;;;;;5069964;28;20028;-74
2021/01/04 08:34:44;;;;;;;12.70;8.57;;;;;;;;;;5069177;28;20044;-74
2021/01/04 08:37:11;;;;;;;18.08;10.07;;;;;;;;;;5060110;28;20019;-75
2021/01/04 08:39:42;;;;;;;14.50;8.40;;;;;;;;;;5061861;28;20020;-76
2021/01/04 08:42:08;;;;;;;15.38;8.68;;;;;;;;;;5063120;28;20028;-74
2021/01/04 08:44:35;;;;;;;16.75;8.70;;;;;;;;;;5067743;28;20421;-75
2021/01/04 08:47:08;;;;;;;11.68;6.95;;;;;;;;;;5074177;28;20395;-74
2021/01/04 08:49:42;;;;;;;14.00;9.23;;;;;;;;;;5060860;28;20025;-74
2021/01/04 08:52:16;;;;;;;15.68;7.80;;;;;;;;;;5054683;28;20031;-73
2021/01/04 08:54:42;;;;;;;14.00;7.13;;;;;;;;;;5069802;28;20509;-73
2021/01/04 08:57:16;;;;;;;18.13;8.77;;;;;;;;;;5062444;28;20105;-74
2021/01/04 08:59:56;;;;;;;16.80;9.57;;;;;;;;;;5063954;28;20021;-75
2021/01/04 09:02:35;;;;;;;10.00;4.85;;;;;;;;;;5059667;28;20032;-74
2021/01/04 09:05:03;;;;;;;16.30;9.85;;;;;;;;;;5064698;28;20039;-74
2021/01/04 09:07:29;;;;;;;17.00;7.38;;;;;;;;;;5064115;28;20024;-74
2021/01/04 09:10:14;;;;;;;15.95;10.80;;;;;;;;;;5062900;28;20017;-74
2021/01/04 09:12:46;;;;;;;16.83;10.43;;;;;;;;;;5058681;28;20557;-74
2021/01/04 09:15:14;;;;;;;11.82;5.28;;;;;;;;;;5054231;28;20396;-73
2021/01/04 09:17:49;;;;;;;15.18;8.52;;;;;;;;;;5054842;28;20017;-74
2021/01/04 09:20:20;;;;;;;15.18;6.95;;;;;;;;;;5054614;28;20024;-75
2021/01/04 09:22:47;;;;;;;16.10;8.52;;;;;;;;;;5053440;28;20108;-77
2021/01/04 09:25:20;;;;;;;14.98;8.90;;;;;;;;;;5054838;28;20021;-73
2021/01/04 09:27:48;;;;;;;13.27;8.60;;;;;;;;;;5052981;28;20067;-73
2021/01/04 09:30:18;;;;;;;15.60;8.85;;;;;;;;;;5068265;28;20381;-73
2021/01/04 09:32:44;;;;;;;19.50;11.23;;;;;;;;;;5073715;28;20031;-73
2021/01/04 09:35:19;;;;;;;16.67;9.27;;;;;;;;;;5073426;28;20013;-73
2021/01/04 09:37:45;;;;;;;18.40;7.45;;;;;;;;;;5072799;28;20025;-73
2021/01/04 09:40:16;;;;;;;13.98;5.90;;;;;;;;;;5065705;28;20044;-73
2021/01/04 09:42:43;;;;;;;20.30;10.25;;;;;;;;;;5053443;28;20636;-73
2021/01/04 09:45:12;;;;;;;20.35;9.88;;;;;;;;;;5051924;28;20234;-73
2021/01/04 09:47:44;;;;;;;18.65;7.90;;;;;;;;;;5053355;28;20017;-73
2021/01/04 09:50:31;;;;;;;17.42;7.07;;;;;;;;;;5052882;28;20850;-73
2021/01/04 09:53:02;;;;;;;16.15;9.05;;;;;;;;;;5053161;28;20017;-74
2021/01/04 09:55:30;;;;;;;16.30;9.60;;;;;;;;;;5051523;28;20029;-74
2021/01/04 09:57:58;;;;;;;18.33;7.47;;;;;;;;;;5053255;28;20035;-74
2021/01/04 10:00:25;;;;;;;16.52;7.32;;;;;;;;;;5053148;28;20056;-74
2021/01/04 10:02:59;;;;;;;11.98;5.47;;;;;;;;;;5052960;28;20109;-74
2021/01/04 10:05:32;;;;;;;14.70;8.65;;;;;;;;;;5052966;28;20020;-76
2021/01/04 10:07:58;;;;;;;15.65;8.90;;;;;;;;;;5051753;28;20338;-75
2021/01/04 10:10:24;;;;;;;16.48;8.60;;;;;;;;;;5051230;28;20025;-74
2021/01/04 10:12:50;;;;;;;11.40;4.00;;;;;;;;;;5053077;28;20028;-74
2021/01/04 10:15:25;;;;;;;13.55;6.80;;;;;;;;;;5052921;28;20032;-74
2021/01/04 10:18:00;;;;;;;16.65;7.70;;;;;;;;;;5053511;28;20013;-73
2021/01/04 10:20:32;;;;;;;13.85;7.30;;;;;;;;;;5051582;28;20017;-73
2021/01/04 10:22:59;;;;;;;16.98;8.07;;;;;;;;;;5052998;28;20053;-73
2021/01/04 10:25:30;;;;;;;11.23;6.20;;;;;;;;;;5052771;28;20048;-73
2021/01/04 10:27:58;;;;;;;8.50;4.05;;;;;;;;;;5052993;28;20092;-73
2021/01/04 10:30:26;;;;;;;12.18;6.90;;;;;;;;;;5051310;28;20017;-74
2021/01/04 10:33:02;;;;;;;13.27;6.65;;;;;;;;;;5052979;28;20013;-74
2021/01/04 10:35:28;;;;;;;11.75;4.20;;;;;;;;;;5051350;28;20024;-74
2021/01/04 10:37:56;;;;;;;8.85;4.15;;;;;;;;;;5052491;28;20389;-74
2021/01/04 10:40:23;;;;;;;8.38;4.18;;;;;;;;;;5052314;28;20037;-74
2021/01/04 10:42:59;;;;;;;10.05;4.70;;;;;;;;;;5052660;28;20135;-75
2021/01/04 10:45:32;;;;;;;10.55;5.22;;;;;;;;;;5051754;28;20423;-73
2021/01/04 10:48:00;;;;;;;14.10;5.13;;;;;;;;;;5053493;28;20021;-74
2021/01/04 10:50:34;;;;;;;12.45;6.88;;;;;;;;;;5053071;28;20048;-74
2021/01/04 10:53:02;;;;;;;11.63;6.60;;;;;;;;;;5053226;28;20457;-73
2021/01/04 10:55:30;;;;;;;9.00;4.05;;;;;;;;;;5052626;28;20035;-73
2021/01/04 10:58:09;;;;;;;9.57;5.63;;;;;;;;;;5052824;28;20396;-72
2021/01/04 11:00:37;;;;;;;10.48;5.90;;;;;;;;;;5052930;28;20070;-73
2021/01/04 11:03:07;;;;;;;14.32;5.93;;;;;;;;;;5052022;28;20064;-72
2021/01/04 11:05:33;;;;;;;;;;;;;;;;;;5053335;28;20009;-72
2021/01/04 11:08:09;;;;;;;12.25;6.35;;;;;;;;;;5052527;28;19907;-72
2021/01/04 11:10:35;;;;;;;11.77;5.18;;;;;;;;;;5050862;28;20021;-74
2021/01/04 11:13:01;;;;;;;12.63;7.55;;;;;;;;;;5052064;28;20021;-73
2021/01/04 11:15:29;;;;;;;9.50;4.40;;;;;;;;;;5051855;28;20454;-74
2021/01/04 11:18:07;;;;;;;9.07;5.13;;;;;;;;;;5051912;28;20024;-74
2021/01/04 11:20:34;;;;;;;9.88;4.95;;;;;;;;;;5050567;28;20031;-74
2021/01/04 11:23:12;;;;;;;11.23;6.43;;;;;;;;;;5050505;28;20060;-74
2021/01/04 11:25:39;;;;;;;11.93;6.40;;;;;;;;;;5051905;28;20017;-74
2021/01/04 11:28:05;;;;;;;10.88;5.53;;;;;;;;;;5051825;28;20017;-74
2021/01/04 11:30:31;;;;;;;12.40;5.45;;;;;;;;;;5050229;28;20021;-74
2021/01/04 11:32:58;;;;;;;10.18;4.15;;;;;;;;;;5050402;28;20017;-74
2021/01/04 11:35:24;;;;;;;11.77;6.38;;;;;;;;;;5051518;28;20017;-73
2021/01/04 11:37:51;;;;;;;10.32;4.78;;;;;;;;;;5051376;28;20357;-73
2021/01/04 11:40:17;;;;;;;10.73;5.65;;;;;;;;;;5049772;28;20071;-73
2021/01/04 11:42:44;;;;;;;6.38;3.20;;;;;;;;;;5051663;28;20071;-72
2021/01/04 11:45:11;;;;;;;14.27;6.53;;;;;;;;;;5049951;28;20032;-74
2021/01/04 11:47:37;;;;;;;9.90;5.57;;;;;;;;;;5050278;28;20017;-74
2021/01/04 11:50:05;;;;;;;8.38;3.28;;;;;;;;;;5051577;28;20460;-73
2021/01/04 11:52:32;;;;;;;12.00;6.47;;;;;;;;;;5051295;28;20028;-73
2021/01/04 11:54:58;;;;;;;8.35;5.07;;;;;;;;;;5051509;28;20037;-73
2021/01/04 11:57:24;;;;;;;14.35;6.63;;;;;;;;;;5049765;28;20021;-73
2021/01/04 11:59:50;;;;;;;10.85;3.90;;;;;;;;;;5050012;28;20418;-73
2021/01/04 12:02:16;;;;;;;9.52;5.03;;;;;;;;;;5051134;28;20021;-73
2021/01/04 12:04:42;;;;;;;8.13;3.90;;;;;;;;;;5050120;28;20021;-74
2021/01/04 12:07:08;;;;;;;7.43;3.67;;;;;;;;;;5051109;28;20120;-74
2021/01/04 12:09:35;;;;;;;8.18;3.33;;;;;;;;;;5051330;28;20029;-74
2021/01/04 12:12:01;;;;;;;12.45;5.57;;;;;;;;;;5049945;28;20073;-74
2021/01/04 12:14:27;;;;;;;12.90;6.25;;;;;;;;;;5052407;28;20075;-74
2021/01/04 12:16:53;;;;;;;10.23;6.00;;;;;;;;;;5055559;28;20016;-74
2021/01/04 12:19:19;;;;;;;10.00;4.47;;;;;;;;;;5055070;28;20021;-74
2021/01/04 12:21:45;;;;;;;9.02;4.40;;;;;;;;;;5060980;28;20151;-74
2021/01/04 12:24:11;;;;;;;8.15;3.53;;;;;;;;;;5075045;28;20044;-73
2021/01/04 12:26:37;;;;;;;13.77;5.03;;;;;;;;;;5073987;28;20051;-74
2021/01/04 12:29:04;;;;;;;8.73;4.68;;;;;;;;;;5075274;28;20059;-74
2021/01/04 12:31:35;;;;;;;7.65;4.35;;;;;;;;;;5074680;28;20443;-74
2021/01/04 12:34:01;;;;;;;9.40;4.97;;;;;;;;;;5073781;28;20368;-73
2021/01/04 12:36:28;;;;;;;10.73;4.18;;;;;;;;;;5073486;28;20043;-74
2021/01/04 12:38:54;;;;;;;11.40;5.47;;;;;;;;;;5075239;28;20024;-74
2021/01/04 12:41:20;;;;;;;12.38;3.83;;;;;;;;;;5056813;28;20045;-75
2021/01/04 12:43:47;;;;;;;8.02;3.67;;;;;;;;;;5054849;28;20099;-75
2021/01/04 12:46:13;;;;;;;9.43;5.40;;;;;;;;;;5054577;28;20470;-74
2021/01/04 12:48:40;;;;;;;11.73;5.85;;;;;;;;;;5054696;28;20625;-74
2021/01/04 12:51:09;;;;;;;11.23;4.40;;;;;;;;;;5054742;28;20504;-74
2021/01/04 12:53:35;;;;;;;10.97;4.83;;;;;;;;;;5053309;28;20013;-74
2021/01/04 12:56:02;;;;;;;7.43;3.72;;;;;;;;;;5054655;28;20244;-74
2021/01/04 12:58:29;;;;;;;11.95;5.43;;;;;;;;;;5054450;28;20025;-73
2021/01/04 13:00:55;;;;;;;10.75;3.92;;;;;;;;;;5053118;28;20357;-74
2021/01/04 13:03:21;;;;;;;7.55;4.50;;;;;;;;;;5054335;28;20013;-74
2021/01/04 13:05:48;;;;;;;8.65;5.32;;;;;;;;;;5053205;28;20108;-74
2021/01/04 13:08:14;;;;;;;13.93;4.38;;;;;;;;;;5054321;28;20017;-74
2021/01/04 13:10:40;;;;;;;7.97;4.15;;;;;;;;;;5054570;28;20028;-74
2021/01/04 13:13:07;;;;;;;7.63;3.88;;;;;;;;;;5053054;28;20104;-74
2021/01/04 13:15:33;;;;;;;11.77;5.68;;;;;;;;;;5053067;28;20178;-74
2021/01/04 13:17:59;;;;;;;8.77;5.00;;;;;;;;;;5052885;28;20017;-74
2021/01/04 13:20:25;;;;;;;8.70;4.30;;;;;;;;;;5052624;28;20167;-74
2021/01/04 13:22:51;;;;;;;7.72;2.97;;;;;;;;;;5054243;28;20481;-73
2021/01/04 13:25:17;;;;;;;10.38;5.07;;;;;;;;;;5050788;28;20032;-73
2021/01/04 13:27:43;;;;;;;8.95;4.68;;;;;;;;;;5051304;28;20021;-74
2021/01/04 13:30:09;;;;;;;15.63;5.45;;;;;;;;;;5052308;28;20025;-74
2021/01/04 13:32:35;;;;;;;8.73;5.20;;;;;;;;;;5053760;28;20369;-74
2021/01/04 13:35:01;;;;;;;11.52;5.97;;;;;;;;;;5053683;28;20339;-73
2021/01/04 13:37:27;;;;;;;10.27;4.53;;;;;;;;;;5053687;28;20066;-74
2021/01/04 13:39:53;;;;;;;12.38;3.72;;;;;;;;;;5052192;28;20473;-74
2021/01/04 13:42:20;;;;;;;10.98;4.93;;;;;;;;;;5052380;28;20028;-75
2021/01/04 13:44:46;;;;;;;9.85;3.70;;;;;;;;;;5053834;28;20021;-74
2021/01/04 13:47:14;;;;;;;6.68;3.20;;;;;;;;;;5053552;28;20100;-74
2021/01/04 13:49:41;;;;;;;7.30;4.55;;;;;;;;;;5053748;28;20029;-74
2021/01/04 13:52:07;;;;;;;10.05;5.07;;;;;;;;;;5053626;28;20021;-73
2021/01/04 13:54:33;;;;;;;16.75;6.65;;;;;;;;;;5053563;28;20021;-74
2021/01/04 13:56:59;;;;;;;8.30;4.75;;;;;;;;;;5053544;28;20402;-74
2021/01/04 13:59:25;;;;;;;6.72;2.67;;;;;;;;;;5051971;28;20078;-74
2021/01/04 14:02:02;;;;;;;6.35;3.25;;;;;;;;;;5052037;28;20457;-73
2021/01/04 14:04:28;;;;;;;6.22;3.55;;;;;;;;;;5053244;28;20025;-74
2021/01/04 14:06:54;;;;;;;6.18;3.50;;;;;;;;;;5053442;28;20021;-74
2021/01/04 14:09:20;;;;;;;9.07;4.30;;;;;;;;;;5053263;28;20610;-74
2021/01/04 14:11:53;;;;;;;7.60;3.67;;;;;;;;;;5052121;28;20083;-74
2021/01/04 14:14:20;;;;;;;7.75;4.28;;;;;;;;;;5052989;28;20025;-74
2021/01/04 14:16:46;;;;;;;8.77;4.10;;;;;;;;;;5051884;28;20024;-74
2021/01/04 14:19:13;;;;;;;6.82;3.95;;;;;;;;;;5052816;28;20020;-74
2021/01/04 14:21:39;;;;;;;6.47;3.03;;;;;;;;;;5053068;28;20147;-74
2021/01/04 14:24:05;;;;;;;6.93;3.50;;;;;;;;;;5052935;28;20087;-74
2021/01/04 14:26:32;;;;;;;7.53;3.50;;;;;;;;;;5051581;28;20079;-75
2021/01/04 14:28:58;;;;;;;7.60;3.10;;;;;;;;;;5053153;28;20024;-75
2021/01/04 14:31:25;;;;;;;8.02;2.97;;;;;;;;;;5051541;28;20021;-75
2021/01/04 14:33:52;;;;;;;6.35;2.72;;;;;;;;;;5051709;28;20024;-75
2021/01/04 14:36:18;;;;;;;10.73;4.32;;;;;;;;;;5052842;28;20017;-74
2021/01/04 14:38:44;;;;;;;8.02;3.17;;;;;;;;;;5051354;28;20017;-75
2021/01/04 14:41:11;;;;;;;11.15;3.03;;;;;;;;;;5052399;28;20095;-74
2021/01/04 14:43:37;;;;;;;6.78;2.80;;;;;;;;;;5051466;28;20040;-75
2021/01/04 14:46:03;;;;;;;8.43;3.78;;;;;;;;;;5051353;28;20075;-75
2021/01/04 14:48:30;;;;;;;6.55;2.88;;;;;;;;;;5051040;28;20385;-74
2021/01/04 14:50:56;;;;;;;7.85;3.25;;;;;;;;;;5051224;28;20027;-74
2021/01/04 14:53:22;;;;;;;9.95;3.47;;;;;;;;;;5052497;28;20052;-73
2021/01/04 14:55:49;;;;;;;6.25;3.47;;;;;;;;;;5051256;28;20044;-74